sensor_id;sensor_type;location;lat;lon;timestamp;temperature;humidity
14142;DHT22;7151;52.246;4.820;2022-12-18T00:02:14;2.90;79.40
14142;DHT22;7151;52.246;4.820;2022-12-18T00:04:40;2.90;79.50
14142;DHT22;7151;52.246;4.820;2022-12-18T00:07:05;2.90;79.50
14142;DHT22;7151;52.246;4.820;2022-12-18T00:09:31;2.90;79.50
14142;DHT22;7151;52.246;4.820;2022-12-18T00:11:56;2.90;79.50
14142;DHT22;7151;52.246;4.820;2022-12-18T00:14:22;2.90;79.60
14142;DHT22;7151;52.246;4.820;2022-12-18T00:16:47;2.90;79.60
14142;DHT22;7151;52.246;4.820;2022-12-18T00:19:14;2.90;79.60
14142;DHT22;7151;52.246;4.820;2022-12-18T00:21:40;2.90;79.50
14142;DHT22;7151;52.246;4.820;2022-12-18T00:24:06;2.90;79.50
14142;DHT22;7151;52.246;4.820;2022-12-18T00:26:33;2.90;79.50
14142;DHT22;7151;52.246;4.820;2022-12-18T00:29:02;2.90;79.40
14142;DHT22;7151;52.246;4.820;2022-12-18T00:31:28;2.90;79.30
14142;DHT22;7151;52.246;4.820;2022-12-18T00:33:57;2.90;79.40
14142;DHT22;7151;52.246;4.820;2022-12-18T00:36:25;2.80;79.40
14142;DHT22;7151;52.246;4.820;2022-12-18T00:38:52;2.80;79.40
14142;DHT22;7151;52.246;4.820;2022-12-18T00:41:18;2.80;79.40
14142;DHT22;7151;52.246;4.820;2022-12-18T00:44:04;2.80;79.40
14142;DHT22;7151;52.246;4.820;2022-12-18T00:46:30;2.80;79.40
14142;DHT22;7151;52.246;4.820;2022-12-18T00:48:56;2.80;79.40
14142;DHT22;7151;52.246;4.820;2022-12-18T00:51:21;2.80;79.50
14142;DHT22;7151;52.246;4.820;2022-12-18T00:53:47;2.80;79.60
14142;DHT22;7151;52.246;4.820;2022-12-18T00:56:13;2.80;79.60
14142;DHT22;7151;52.246;4.820;2022-12-18T00:58:39;2.80;79.50
14142;DHT22;7151;52.246;4.820;2022-12-18T01:01:05;2.80;79.30
14142;DHT22;7151;52.246;4.820;2022-12-18T01:03:31;2.80;79.30
14142;DHT22;7151;52.246;4.820;2022-12-18T01:05:56;2.80;79.40
14142;DHT22;7151;52.246;4.820;2022-12-18T01:08:22;2.80;79.30
14142;DHT22;7151;52.246;4.820;2022-12-18T01:10:48;2.80;79.30
14142;DHT22;7151;52.246;4.820;2022-12-18T01:13:14;2.70;79.10
14142;DHT22;7151;52.246;4.820;2022-12-18T01:15:39;2.80;79.30
14142;DHT22;7151;52.246;4.820;2022-12-18T01:18:06;2.70;79.20
14142;DHT22;7151;52.246;4.820;2022-12-18T01:20:32;2.70;79.10
14142;DHT22;7151;52.246;4.820;2022-12-18T01:22:57;2.70;79.10
14142;DHT22;7151;52.246;4.820;2022-12-18T01:25:23;2.70;79.20
14142;DHT22;7151;52.246;4.820;2022-12-18T01:27:48;2.70;79.30
14142;DHT22;7151;52.246;4.820;2022-12-18T01:30:14;2.70;79.30
14142;DHT22;7151;52.246;4.820;2022-12-18T01:32:40;2.70;79.30
14142;DHT22;7151;52.246;4.820;2022-12-18T01:35:06;2.70;79.30
14142;DHT22;7151;52.246;4.820;2022-12-18T01:37:32;2.70;79.30
14142;DHT22;7151;52.246;4.820;2022-12-18T01:39:58;2.60;79.10
14142;DHT22;7151;52.246;4.820;2022-12-18T01:42:23;2.60;79.10
14142;DHT22;7151;52.246;4.820;2022-12-18T01:47:39;2.60;79.10
14142;DHT22;7151;52.246;4.820;2022-12-18T01:52:33;2.60;79.20
14142;DHT22;7151;52.246;4.820;2022-12-18T01:55:00;2.60;79.30
14142;DHT22;7151;52.246;4.820;2022-12-18T01:57:28;2.60;79.30
14142;DHT22;7151;52.246;4.820;2022-12-18T01:59:58;2.60;79.20
14142;DHT22;7151;52.246;4.820;2022-12-18T02:02:27;2.50;79.10
14142;DHT22;7151;52.246;4.820;2022-12-18T02:04:54;2.50;79.10
14142;DHT22;7151;52.246;4.820;2022-12-18T02:10:17;2.50;79.20
14142;DHT22;7151;52.246;4.820;2022-12-18T02:13:02;2.50;79.20
14142;DHT22;7151;52.246;4.820;2022-12-18T02:18:30;2.50;79.30
14142;DHT22;7151;52.246;4.820;2022-12-18T02:26:30;2.50;79.30
14142;DHT22;7151;52.246;4.820;2022-12-18T02:29:06;2.50;79.30
14142;DHT22;7151;52.246;4.820;2022-12-18T02:31:38;2.50;79.20
14142;DHT22;7151;52.246;4.820;2022-12-18T02:34:07;2.50;79.20
14142;DHT22;7151;52.246;4.820;2022-12-18T02:36:36;2.50;79.30
14142;DHT22;7151;52.246;4.820;2022-12-18T02:39:05;2.50;79.30
14142;DHT22;7151;52.246;4.820;2022-12-18T02:41:32;2.50;79.30
14142;DHT22;7151;52.246;4.820;2022-12-18T02:44:01;2.50;79.30
14142;DHT22;7151;52.246;4.820;2022-12-18T02:46:32;2.50;79.20
14142;DHT22;7151;52.246;4.820;2022-12-18T02:49:30;2.50;79.20
14142;DHT22;7151;52.246;4.820;2022-12-18T02:54:39;2.50;79.10
14142;DHT22;7151;52.246;4.820;2022-12-18T02:57:53;2.40;79.00
14142;DHT22;7151;52.246;4.820;2022-12-18T03:00:24;2.40;78.90
14142;DHT22;7151;52.246;4.820;2022-12-18T03:02:59;2.40;78.80
14142;DHT22;7151;52.246;4.820;2022-12-18T03:05:53;2.40;78.80
14142;DHT22;7151;52.246;4.820;2022-12-18T03:08:27;2.30;78.80
14142;DHT22;7151;52.246;4.820;2022-12-18T03:11:06;2.30;78.80
14142;DHT22;7151;52.246;4.820;2022-12-18T03:13:52;2.30;78.80
14142;DHT22;7151;52.246;4.820;2022-12-18T03:16:27;2.30;78.90
14142;DHT22;7151;52.246;4.820;2022-12-18T03:19:04;2.30;79.00
14142;DHT22;7151;52.246;4.820;2022-12-18T03:21:38;2.30;79.00
14142;DHT22;7151;52.246;4.820;2022-12-18T03:24:07;2.30;79.00
14142;DHT22;7151;52.246;4.820;2022-12-18T03:26:35;2.30;79.00
14142;DHT22;7151;52.246;4.820;2022-12-18T03:30:09;2.30;79.00
14142;DHT22;7151;52.246;4.820;2022-12-18T03:32:09;2.30;78.90
14142;DHT22;7151;52.246;4.820;2022-12-18T03:34:38;2.30;78.80
14142;DHT22;7151;52.246;4.820;2022-12-18T03:37:05;2.30;78.80
14142;DHT22;7151;52.246;4.820;2022-12-18T03:39:31;2.30;78.80
14142;DHT22;7151;52.246;4.820;2022-12-18T03:45:03;2.30;78.80
14142;DHT22;7151;52.246;4.820;2022-12-18T03:50:10;2.20;78.80
14142;DHT22;7151;52.246;4.820;2022-12-18T03:52:51;2.20;78.80
14142;DHT22;7151;52.246;4.820;2022-12-18T03:55:20;2.20;78.80
14142;DHT22;7151;52.246;4.820;2022-12-18T03:57:47;2.30;78.90
14142;DHT22;7151;52.246;4.820;2022-12-18T04:00:16;2.30;78.80
14142;DHT22;7151;52.246;4.820;2022-12-18T04:02:45;2.20;78.70
14142;DHT22;7151;52.246;4.820;2022-12-18T04:05:14;2.20;78.70
14142;DHT22;7151;52.246;4.820;2022-12-18T04:07:40;2.20;78.70
14142;DHT22;7151;52.246;4.820;2022-12-18T04:10:07;2.20;78.70
14142;DHT22;7151;52.246;4.820;2022-12-18T04:12:34;2.20;78.70
14142;DHT22;7151;52.246;4.820;2022-12-18T04:15:02;2.20;78.60
14142;DHT22;7151;52.246;4.820;2022-12-18T04:17:28;2.20;78.50
14142;DHT22;7151;52.246;4.820;2022-12-18T04:19:54;2.20;78.50
14142;DHT22;7151;52.246;4.820;2022-12-18T04:22:19;2.20;78.50
14142;DHT22;7151;52.246;4.820;2022-12-18T04:24:45;2.20;78.50
14142;DHT22;7151;52.246;4.820;2022-12-18T04:27:10;2.20;78.40
14142;DHT22;7151;52.246;4.820;2022-12-18T04:29:36;2.20;78.40
14142;DHT22;7151;52.246;4.820;2022-12-18T04:32:01;2.20;78.40
14142;DHT22;7151;52.246;4.820;2022-12-18T04:34:27;2.20;78.40
14142;DHT22;7151;52.246;4.820;2022-12-18T04:36:52;2.10;78.20
14142;DHT22;7151;52.246;4.820;2022-12-18T04:39:18;2.20;78.30
14142;DHT22;7151;52.246;4.820;2022-12-18T04:41:43;2.20;78.30
14142;DHT22;7151;52.246;4.820;2022-12-18T04:44:09;2.10;78.10
14142;DHT22;7151;52.246;4.820;2022-12-18T04:46:35;2.10;78.10
14142;DHT22;7151;52.246;4.820;2022-12-18T04:49:00;2.10;78.00
14142;DHT22;7151;52.246;4.820;2022-12-18T04:51:26;2.10;78.60
14142;DHT22;7151;52.246;4.820;2022-12-18T04:53:52;2.10;77.80
14142;DHT22;7151;52.246;4.820;2022-12-18T04:56:17;2.10;77.80
14142;DHT22;7151;52.246;4.820;2022-12-18T04:58:44;2.10;77.70
14142;DHT22;7151;52.246;4.820;2022-12-18T05:01:11;2.00;77.70
14142;DHT22;7151;52.246;4.820;2022-12-18T05:03:37;2.10;77.60
14142;DHT22;7151;52.246;4.820;2022-12-18T05:06:04;2.00;77.50
14142;DHT22;7151;52.246;4.820;2022-12-18T05:08:30;2.00;77.40
14142;DHT22;7151;52.246;4.820;2022-12-18T05:11:01;2.00;77.40
14142;DHT22;7151;52.246;4.820;2022-12-18T05:13:28;2.00;77.50
14142;DHT22;7151;52.246;4.820;2022-12-18T05:15:54;2.00;77.50
14142;DHT22;7151;52.246;4.820;2022-12-18T05:18:20;1.90;77.40
14142;DHT22;7151;52.246;4.820;2022-12-18T05:20:45;1.90;77.40
14142;DHT22;7151;52.246;4.820;2022-12-18T05:23:11;1.90;77.40
14142;DHT22;7151;52.246;4.820;2022-12-18T05:25:37;1.90;77.40
14142;DHT22;7151;52.246;4.820;2022-12-18T05:28:02;1.90;77.30
14142;DHT22;7151;52.246;4.820;2022-12-18T05:30:28;1.90;77.30
14142;DHT22;7151;52.246;4.820;2022-12-18T05:32:54;1.90;77.40
14142;DHT22;7151;52.246;4.820;2022-12-18T05:35:19;1.90;77.30
14142;DHT22;7151;52.246;4.820;2022-12-18T05:37:45;1.90;77.30
14142;DHT22;7151;52.246;4.820;2022-12-18T05:40:11;1.90;77.20
14142;DHT22;7151;52.246;4.820;2022-12-18T05:42:37;1.90;77.20
14142;DHT22;7151;52.246;4.820;2022-12-18T05:45:04;1.90;77.20
14142;DHT22;7151;52.246;4.820;2022-12-18T05:47:29;1.90;77.20
14142;DHT22;7151;52.246;4.820;2022-12-18T05:49:55;1.90;77.20
14142;DHT22;7151;52.246;4.820;2022-12-18T05:52:21;1.90;77.20
14142;DHT22;7151;52.246;4.820;2022-12-18T05:54:46;1.90;77.20
14142;DHT22;7151;52.246;4.820;2022-12-18T05:57:12;1.90;77.20
14142;DHT22;7151;52.246;4.820;2022-12-18T05:59:37;1.90;77.10
14142;DHT22;7151;52.246;4.820;2022-12-18T06:02:03;1.90;77.00
14142;DHT22;7151;52.246;4.820;2022-12-18T06:04:28;1.80;77.00
14142;DHT22;7151;52.246;4.820;2022-12-18T06:06:54;1.80;76.90
14142;DHT22;7151;52.246;4.820;2022-12-18T06:09:20;1.80;76.90
14142;DHT22;7151;52.246;4.820;2022-12-18T06:11:45;1.80;76.90
14142;DHT22;7151;52.246;4.820;2022-12-18T06:14:11;1.80;76.90
14142;DHT22;7151;52.246;4.820;2022-12-18T06:16:36;1.80;76.70
14142;DHT22;7151;52.246;4.820;2022-12-18T06:19:05;1.80;76.70
14142;DHT22;7151;52.246;4.820;2022-12-18T06:21:31;1.80;76.60
14142;DHT22;7151;52.246;4.820;2022-12-18T06:23:57;1.80;76.60
14142;DHT22;7151;52.246;4.820;2022-12-18T06:26:23;1.80;76.50
14142;DHT22;7151;52.246;4.820;2022-12-18T06:28:49;1.80;76.50
14142;DHT22;7151;52.246;4.820;2022-12-18T06:31:15;1.80;76.50
14142;DHT22;7151;52.246;4.820;2022-12-18T06:33:41;1.70;76.30
14142;DHT22;7151;52.246;4.820;2022-12-18T06:36:09;1.70;76.30
14142;DHT22;7151;52.246;4.820;2022-12-18T06:38:36;1.70;76.30
14142;DHT22;7151;52.246;4.820;2022-12-18T06:41:07;1.70;76.30
14142;DHT22;7151;52.246;4.820;2022-12-18T06:43:33;1.70;76.30
14142;DHT22;7151;52.246;4.820;2022-12-18T06:46:03;1.70;76.30
14142;DHT22;7151;52.246;4.820;2022-12-18T06:48:29;1.70;76.30
14142;DHT22;7151;52.246;4.820;2022-12-18T06:50:55;1.60;76.20
14142;DHT22;7151;52.246;4.820;2022-12-18T06:53:21;1.70;76.30
14142;DHT22;7151;52.246;4.820;2022-12-18T06:55:46;1.60;76.20
14142;DHT22;7151;52.246;4.820;2022-12-18T06:58:12;1.60;76.20
14142;DHT22;7151;52.246;4.820;2022-12-18T07:00:37;1.60;76.20
14142;DHT22;7151;52.246;4.820;2022-12-18T07:03:03;1.60;76.20
14142;DHT22;7151;52.246;4.820;2022-12-18T07:05:29;1.60;76.20
14142;DHT22;7151;52.246;4.820;2022-12-18T07:07:54;1.60;76.10
14142;DHT22;7151;52.246;4.820;2022-12-18T07:10:20;1.60;76.10
14142;DHT22;7151;52.246;4.820;2022-12-18T07:12:45;1.60;76.00
14142;DHT22;7151;52.246;4.820;2022-12-18T07:15:11;1.60;76.00
14142;DHT22;7151;52.246;4.820;2022-12-18T07:17:37;1.60;76.00
14142;DHT22;7151;52.246;4.820;2022-12-18T07:20:03;1.50;76.00
14142;DHT22;7151;52.246;4.820;2022-12-18T07:22:29;1.50;75.90
14142;DHT22;7151;52.246;4.820;2022-12-18T07:24:54;1.50;75.90
14142;DHT22;7151;52.246;4.820;2022-12-18T07:27:21;1.50;75.90
14142;DHT22;7151;52.246;4.820;2022-12-18T07:29:47;1.50;75.90
14142;DHT22;7151;52.246;4.820;2022-12-18T07:32:12;1.50;75.90
14142;DHT22;7151;52.246;4.820;2022-12-18T07:34:38;1.50;75.90
14142;DHT22;7151;52.246;4.820;2022-12-18T07:37:03;1.50;75.80
14142;DHT22;7151;52.246;4.820;2022-12-18T07:39:29;1.50;75.80
14142;DHT22;7151;52.246;4.820;2022-12-18T07:41:54;1.50;75.80
14142;DHT22;7151;52.246;4.820;2022-12-18T07:44:43;1.50;75.70
14142;DHT22;7151;52.246;4.820;2022-12-18T07:47:08;1.50;75.60
14142;DHT22;7151;52.246;4.820;2022-12-18T07:49:34;1.50;75.60
14142;DHT22;7151;52.246;4.820;2022-12-18T07:51:59;1.50;75.60
14142;DHT22;7151;52.246;4.820;2022-12-18T07:54:25;1.50;75.60
14142;DHT22;7151;52.246;4.820;2022-12-18T07:56:51;1.50;75.60
14142;DHT22;7151;52.246;4.820;2022-12-18T07:59:18;1.40;75.50
14142;DHT22;7151;52.246;4.820;2022-12-18T08:01:43;1.40;76.20
14142;DHT22;7151;52.246;4.820;2022-12-18T08:04:09;1.40;75.50
14142;DHT22;7151;52.246;4.820;2022-12-18T08:06:35;1.40;75.50
14142;DHT22;7151;52.246;4.820;2022-12-18T08:09:00;1.40;75.50
14142;DHT22;7151;52.246;4.820;2022-12-18T08:11:27;1.40;75.50
14142;DHT22;7151;52.246;4.820;2022-12-18T08:13:54;1.40;75.50
14142;DHT22;7151;52.246;4.820;2022-12-18T08:16:20;1.40;75.60
14142;DHT22;7151;52.246;4.820;2022-12-18T08:18:47;1.40;75.60
14142;DHT22;7151;52.246;4.820;2022-12-18T08:21:15;1.40;75.60
14142;DHT22;7151;52.246;4.820;2022-12-18T08:23:41;1.40;75.60
14142;DHT22;7151;52.246;4.820;2022-12-18T08:26:07;1.40;75.60
14142;DHT22;7151;52.246;4.820;2022-12-18T08:28:33;1.40;75.60
14142;DHT22;7151;52.246;4.820;2022-12-18T08:30:59;1.50;75.60
14142;DHT22;7151;52.246;4.820;2022-12-18T08:33:26;1.50;75.70
14142;DHT22;7151;52.246;4.820;2022-12-18T08:35:52;1.50;75.60
14142;DHT22;7151;52.246;4.820;2022-12-18T08:38:17;1.50;75.60
14142;DHT22;7151;52.246;4.820;2022-12-18T08:40:43;1.50;75.60
14142;DHT22;7151;52.246;4.820;2022-12-18T08:43:10;1.50;75.60
14142;DHT22;7151;52.246;4.820;2022-12-18T08:45:55;1.60;75.70
14142;DHT22;7151;52.246;4.820;2022-12-18T08:48:21;1.50;75.60
14142;DHT22;7151;52.246;4.820;2022-12-18T08:50:57;1.50;75.60
14142;DHT22;7151;52.246;4.820;2022-12-18T08:53:25;1.60;75.70
14142;DHT22;7151;52.246;4.820;2022-12-18T08:55:50;1.60;75.70
14142;DHT22;7151;52.246;4.820;2022-12-18T08:58:16;1.60;75.70
14142;DHT22;7151;52.246;4.820;2022-12-18T09:00:41;1.60;75.70
14142;DHT22;7151;52.246;4.820;2022-12-18T09:03:15;1.60;75.70
14142;DHT22;7151;52.246;4.820;2022-12-18T09:05:41;1.60;75.80
14142;DHT22;7151;52.246;4.820;2022-12-18T09:08:07;1.70;75.80
14142;DHT22;7151;52.246;4.820;2022-12-18T09:10:32;1.70;75.80
14142;DHT22;7151;52.246;4.820;2022-12-18T09:12:58;1.70;75.80
14142;DHT22;7151;52.246;4.820;2022-12-18T09:15:24;1.70;75.80
14142;DHT22;7151;52.246;4.820;2022-12-18T09:17:49;1.70;75.90
14142;DHT22;7151;52.246;4.820;2022-12-18T09:20:16;1.80;75.90
14142;DHT22;7151;52.246;4.820;2022-12-18T09:22:42;1.80;76.00
14142;DHT22;7151;52.246;4.820;2022-12-18T09:25:07;1.80;76.00
14142;DHT22;7151;52.246;4.820;2022-12-18T09:27:34;1.80;76.00
14142;DHT22;7151;52.246;4.820;2022-12-18T09:30:00;1.90;76.00
14142;DHT22;7151;52.246;4.820;2022-12-18T09:32:26;1.80;76.00
14142;DHT22;7151;52.246;4.820;2022-12-18T09:34:51;1.80;76.00
14142;DHT22;7151;52.246;4.820;2022-12-18T09:37:17;1.90;76.00
14142;DHT22;7151;52.246;4.820;2022-12-18T09:39:43;1.90;76.00
14142;DHT22;7151;52.246;4.820;2022-12-18T09:42:19;1.90;76.10
14142;DHT22;7151;52.246;4.820;2022-12-18T09:44:51;1.90;76.10
14142;DHT22;7151;52.246;4.820;2022-12-18T09:47:30;2.00;76.20
14142;DHT22;7151;52.246;4.820;2022-12-18T09:50:05;2.00;76.10
14142;DHT22;7151;52.246;4.820;2022-12-18T09:52:42;2.00;76.10
14142;DHT22;7151;52.246;4.820;2022-12-18T09:57:51;2.00;76.00
14142;DHT22;7151;52.246;4.820;2022-12-18T10:00:20;2.00;76.00
14142;DHT22;7151;52.246;4.820;2022-12-18T10:02:47;2.00;75.90
14142;DHT22;7151;52.246;4.820;2022-12-18T10:05:16;2.00;76.00
14142;DHT22;7151;52.246;4.820;2022-12-18T10:10:43;2.10;76.10
14142;DHT22;7151;52.246;4.820;2022-12-18T10:21:01;2.10;76.30
14142;DHT22;7151;52.246;4.820;2022-12-18T10:23:39;2.10;76.60
14142;DHT22;7151;52.246;4.820;2022-12-18T10:26:07;2.20;76.70
14142;DHT22;7151;52.246;4.820;2022-12-18T10:28:37;2.20;76.50
14142;DHT22;7151;52.246;4.820;2022-12-18T10:31:15;2.30;76.50
14142;DHT22;7151;52.246;4.820;2022-12-18T10:33:42;2.30;76.40
14142;DHT22;7151;52.246;4.820;2022-12-18T10:36:08;2.30;76.40
14142;DHT22;7151;52.246;4.820;2022-12-18T10:38:34;2.30;76.40
14142;DHT22;7151;52.246;4.820;2022-12-18T10:41:04;2.30;76.30
14142;DHT22;7151;52.246;4.820;2022-12-18T10:43:35;2.30;76.30
14142;DHT22;7151;52.246;4.820;2022-12-18T10:48:41;2.40;76.40
14142;DHT22;7151;52.246;4.820;2022-12-18T10:51:39;2.40;76.40
14142;DHT22;7151;52.246;4.820;2022-12-18T10:54:06;2.40;76.40
14142;DHT22;7151;52.246;4.820;2022-12-18T10:56:38;2.40;76.30
14142;DHT22;7151;52.246;4.820;2022-12-18T10:59:07;2.40;76.30
14142;DHT22;7151;52.246;4.820;2022-12-18T11:01:54;2.50;76.30
14142;DHT22;7151;52.246;4.820;2022-12-18T11:04:28;2.50;76.20
14142;DHT22;7151;52.246;4.820;2022-12-18T11:07:04;2.50;76.20
14142;DHT22;7151;52.246;4.820;2022-12-18T11:09:31;2.50;76.20
14142;DHT22;7151;52.246;4.820;2022-12-18T11:12:02;2.50;76.20
14142;DHT22;7151;52.246;4.820;2022-12-18T11:14:47;2.50;76.80
14142;DHT22;7151;52.246;4.820;2022-12-18T11:17:34;2.60;77.10
14142;DHT22;7151;52.246;4.820;2022-12-18T11:20:28;2.70;77.00
14142;DHT22;7151;52.246;4.820;2022-12-18T11:23:00;2.80;77.00
14142;DHT22;7151;52.246;4.820;2022-12-18T11:25:26;2.90;77.00
14142;DHT22;7151;52.246;4.820;2022-12-18T11:27:55;2.90;76.80
14142;DHT22;7151;52.246;4.820;2022-12-18T11:30:35;2.90;76.50
14142;DHT22;7151;52.246;4.820;2022-12-18T11:33:23;2.90;76.30
14142;DHT22;7151;52.246;4.820;2022-12-18T11:35:58;2.90;76.20
14142;DHT22;7151;52.246;4.820;2022-12-18T11:38:39;2.90;76.10
14142;DHT22;7151;52.246;4.820;2022-12-18T11:41:23;2.90;76.00
14142;DHT22;7151;52.246;4.820;2022-12-18T11:44:18;2.90;76.00
14142;DHT22;7151;52.246;4.820;2022-12-18T11:47:07;2.90;76.00
14142;DHT22;7151;52.246;4.820;2022-12-18T11:49:35;2.90;75.90
14142;DHT22;7151;52.246;4.820;2022-12-18T11:52:21;2.90;76.00
14142;DHT22;7151;52.246;4.820;2022-12-18T11:54:53;2.90;75.90
14142;DHT22;7151;52.246;4.820;2022-12-18T12:00:20;2.90;76.00
14142;DHT22;7151;52.246;4.820;2022-12-18T12:03:13;2.90;76.80
14142;DHT22;7151;52.246;4.820;2022-12-18T12:06:13;2.90;76.00
14142;DHT22;7151;52.246;4.820;2022-12-18T12:08:52;2.90;76.00
14142;DHT22;7151;52.246;4.820;2022-12-18T12:11:32;2.90;76.10
14142;DHT22;7151;52.246;4.820;2022-12-18T12:14:34;2.90;76.00
14142;DHT22;7151;52.246;4.820;2022-12-18T12:19:48;3.00;76.00
14142;DHT22;7151;52.246;4.820;2022-12-18T12:26:07;3.00;76.00
14142;DHT22;7151;52.246;4.820;2022-12-18T12:36:51;3.00;76.00
14142;DHT22;7151;52.246;4.820;2022-12-18T12:39:22;3.10;76.10
14142;DHT22;7151;52.246;4.820;2022-12-18T12:41:48;3.10;76.20
14142;DHT22;7151;52.246;4.820;2022-12-18T12:44:39;3.10;76.10
14142;DHT22;7151;52.246;4.820;2022-12-18T12:47:25;3.10;76.00
14142;DHT22;7151;52.246;4.820;2022-12-18T12:49:52;3.10;76.00
14142;DHT22;7151;52.246;4.820;2022-12-18T12:52:35;3.10;76.70
14142;DHT22;7151;52.246;4.820;2022-12-18T12:55:12;3.20;76.10
14142;DHT22;7151;52.246;4.820;2022-12-18T12:57:48;3.20;76.10
14142;DHT22;7151;52.246;4.820;2022-12-18T13:00:18;3.20;76.10
14142;DHT22;7151;52.246;4.820;2022-12-18T13:05:53;3.20;75.90
14142;DHT22;7151;52.246;4.820;2022-12-18T13:08:28;3.20;75.90
14142;DHT22;7151;52.246;4.820;2022-12-18T13:10:56;3.30;76.00
14142;DHT22;7151;52.246;4.820;2022-12-18T13:13:49;3.20;76.00
14142;DHT22;7151;52.246;4.820;2022-12-18T13:16:19;3.30;76.10
14142;DHT22;7151;52.246;4.820;2022-12-18T13:19:03;3.30;76.00
14142;DHT22;7151;52.246;4.820;2022-12-18T13:21:30;3.30;76.00
14142;DHT22;7151;52.246;4.820;2022-12-18T13:24:27;3.30;76.00
14142;DHT22;7151;52.246;4.820;2022-12-18T13:26:53;3.40;76.00
14142;DHT22;7151;52.246;4.820;2022-12-18T13:29:42;3.40;76.00
14142;DHT22;7151;52.246;4.820;2022-12-18T13:32:23;3.40;75.90
14142;DHT22;7151;52.246;4.820;2022-12-18T13:34:50;3.40;75.90
14142;DHT22;7151;52.246;4.820;2022-12-18T13:37:43;3.40;75.90
14142;DHT22;7151;52.246;4.820;2022-12-18T13:41:21;3.40;75.90
14142;DHT22;7151;52.246;4.820;2022-12-18T13:51:44;3.50;75.70
14142;DHT22;7151;52.246;4.820;2022-12-18T13:56:59;3.50;75.80
14142;DHT22;7151;52.246;4.820;2022-12-18T13:59:39;3.50;75.90
14142;DHT22;7151;52.246;4.820;2022-12-18T14:02:14;3.50;75.90
14142;DHT22;7151;52.246;4.820;2022-12-18T14:04:40;3.50;75.90
14142;DHT22;7151;52.246;4.820;2022-12-18T14:07:23;3.50;75.90
14142;DHT22;7151;52.246;4.820;2022-12-18T14:09:52;3.50;75.90
14142;DHT22;7151;52.246;4.820;2022-12-18T14:12:21;3.50;75.90
14142;DHT22;7151;52.246;4.820;2022-12-18T14:15:50;3.50;75.90
14142;DHT22;7151;52.246;4.820;2022-12-18T14:18:16;3.60;75.90
14142;DHT22;7151;52.246;4.820;2022-12-18T14:20:44;3.60;75.80
14142;DHT22;7151;52.246;4.820;2022-12-18T14:25:53;3.60;75.80
14142;DHT22;7151;52.246;4.820;2022-12-18T14:28:19;3.60;75.80
14142;DHT22;7151;52.246;4.820;2022-12-18T14:30:47;3.60;75.80
14142;DHT22;7151;52.246;4.820;2022-12-18T14:36:03;3.60;75.80
14142;DHT22;7151;52.246;4.820;2022-12-18T14:38:37;3.60;75.80
14142;DHT22;7151;52.246;4.820;2022-12-18T14:41:14;3.70;75.80
14142;DHT22;7151;52.246;4.820;2022-12-18T14:43:45;3.70;75.80
14142;DHT22;7151;52.246;4.820;2022-12-18T14:46:36;3.70;75.80
14142;DHT22;7151;52.246;4.820;2022-12-18T14:51:59;3.70;75.60
14142;DHT22;7151;52.246;4.820;2022-12-18T14:54:25;3.70;75.60
14142;DHT22;7151;52.246;4.820;2022-12-18T14:57:04;3.70;75.60
14142;DHT22;7151;52.246;4.820;2022-12-18T14:59:30;3.70;75.60
14142;DHT22;7151;52.246;4.820;2022-12-18T15:02:17;3.70;75.60
14142;DHT22;7151;52.246;4.820;2022-12-18T15:04:44;3.70;75.50
14142;DHT22;7151;52.246;4.820;2022-12-18T15:09:44;3.70;75.50
14142;DHT22;7151;52.246;4.820;2022-12-18T15:12:26;3.70;75.50
14142;DHT22;7151;52.246;4.820;2022-12-18T15:14:53;3.70;75.50
14142;DHT22;7151;52.246;4.820;2022-12-18T15:17:21;3.70;75.50
14142;DHT22;7151;52.246;4.820;2022-12-18T15:19:50;3.80;75.50
14142;DHT22;7151;52.246;4.820;2022-12-18T15:22:30;3.80;75.50
14142;DHT22;7151;52.246;4.820;2022-12-18T15:24:59;3.70;75.30
14142;DHT22;7151;52.246;4.820;2022-12-18T15:27:34;3.80;75.40
14142;DHT22;7151;52.246;4.820;2022-12-18T15:32:37;3.80;75.70
14142;DHT22;7151;52.246;4.820;2022-12-18T15:35:24;3.90;75.60
14142;DHT22;7151;52.246;4.820;2022-12-18T15:37:51;3.90;75.50
14142;DHT22;7151;52.246;4.820;2022-12-18T15:40:25;3.90;75.20
14142;DHT22;7151;52.246;4.820;2022-12-18T15:42:53;3.90;75.10
14142;DHT22;7151;52.246;4.820;2022-12-18T15:45:38;3.90;75.20
14142;DHT22;7151;52.246;4.820;2022-12-18T15:48:22;3.90;75.20
14142;DHT22;7151;52.246;4.820;2022-12-18T15:50:49;3.90;75.20
14142;DHT22;7151;52.246;4.820;2022-12-18T15:53:15;3.90;75.10
14142;DHT22;7151;52.246;4.820;2022-12-18T15:55:41;3.90;75.10
14142;DHT22;7151;52.246;4.820;2022-12-18T15:58:25;3.90;75.00
14142;DHT22;7151;52.246;4.820;2022-12-18T16:00:51;3.90;75.00
14142;DHT22;7151;52.246;4.820;2022-12-18T16:03:17;3.90;75.60
14142;DHT22;7151;52.246;4.820;2022-12-18T16:05:42;3.90;74.90
14142;DHT22;7151;52.246;4.820;2022-12-18T16:08:08;3.90;74.90
14142;DHT22;7151;52.246;4.820;2022-12-18T16:10:35;3.90;74.90
14142;DHT22;7151;52.246;4.820;2022-12-18T16:13:00;3.90;74.80
14142;DHT22;7151;52.246;4.820;2022-12-18T16:15:26;3.90;74.80
14142;DHT22;7151;52.246;4.820;2022-12-18T16:17:51;4.00;74.80
14142;DHT22;7151;52.246;4.820;2022-12-18T16:20:21;4.00;74.70
14142;DHT22;7151;52.246;4.820;2022-12-18T16:22:48;4.00;74.70
14142;DHT22;7151;52.246;4.820;2022-12-18T16:25:25;3.90;74.70
14142;DHT22;7151;52.246;4.820;2022-12-18T16:27:52;4.00;75.00
14142;DHT22;7151;52.246;4.820;2022-12-18T16:30:21;4.00;75.10
14142;DHT22;7151;52.246;4.820;2022-12-18T16:32:47;4.10;75.00
14142;DHT22;7151;52.246;4.820;2022-12-18T16:35:15;4.00;74.80
14142;DHT22;7151;52.246;4.820;2022-12-18T16:37:41;4.10;74.70
14142;DHT22;7151;52.246;4.820;2022-12-18T16:40:08;4.10;74.70
14142;DHT22;7151;52.246;4.820;2022-12-18T16:42:36;4.10;74.60
14142;DHT22;7151;52.246;4.820;2022-12-18T16:45:02;4.10;74.60
14142;DHT22;7151;52.246;4.820;2022-12-18T16:47:28;4.10;74.50
14142;DHT22;7151;52.246;4.820;2022-12-18T16:49:53;4.10;75.20
14142;DHT22;7151;52.246;4.820;2022-12-18T16:52:19;4.10;74.50
14142;DHT22;7151;52.246;4.820;2022-12-18T16:54:45;4.10;74.90
14142;DHT22;7151;52.246;4.820;2022-12-18T16:57:13;4.10;75.00
14142;DHT22;7151;52.246;4.820;2022-12-18T16:59:39;4.20;75.00
14142;DHT22;7151;52.246;4.820;2022-12-18T17:02:08;4.20;74.70
14142;DHT22;7151;52.246;4.820;2022-12-18T17:04:36;4.20;74.60
14142;DHT22;7151;52.246;4.820;2022-12-18T17:07:01;4.20;74.50
14142;DHT22;7151;52.246;4.820;2022-12-18T17:09:28;4.20;74.30
14142;DHT22;7151;52.246;4.820;2022-12-18T17:11:54;4.20;74.40
14142;DHT22;7151;52.246;4.820;2022-12-18T17:14:22;4.20;74.20
14142;DHT22;7151;52.246;4.820;2022-12-18T17:16:50;4.20;74.20
14142;DHT22;7151;52.246;4.820;2022-12-18T17:19:15;4.30;74.60
14142;DHT22;7151;52.246;4.820;2022-12-18T17:21:42;4.20;74.40
14142;DHT22;7151;52.246;4.820;2022-12-18T17:24:08;4.20;74.50
14142;DHT22;7151;52.246;4.820;2022-12-18T17:26:33;4.30;74.40
14142;DHT22;7151;52.246;4.820;2022-12-18T17:28:59;4.20;74.30
14142;DHT22;7151;52.246;4.820;2022-12-18T17:31:27;4.20;74.30
14142;DHT22;7151;52.246;4.820;2022-12-18T17:33:53;4.20;74.10
14142;DHT22;7151;52.246;4.820;2022-12-18T17:36:19;4.30;74.20
14142;DHT22;7151;52.246;4.820;2022-12-18T17:38:53;4.20;74.00
14142;DHT22;7151;52.246;4.820;2022-12-18T17:41:19;4.20;74.10
14142;DHT22;7151;52.246;4.820;2022-12-18T17:43:56;4.20;74.10
14142;DHT22;7151;52.246;4.820;2022-12-18T17:46:23;4.20;74.10
14142;DHT22;7151;52.246;4.820;2022-12-18T17:48:50;4.20;74.90